PWSweather.com
Personal Weather Stations
Station Observations
KJ4AJP
Beautiful Downtown Gardner, Martin, TN 38237

Beautiful Downtown GardnerMartin, TN 38237

Lat: 36.358, Lon: -88.8994

Elevation: 384.3

Station Type: TP1080WC

http://weather.mambm.com/

High Low Average
Temperature 87.4°F30.8°C 70.3°F21.3°C 78.2°F25.7°C
Dew Point 80.6°F27.0°C 70.1°F21.2°C 75.8°F24.3°C
Winds 7.6 mph 12.2 kmh Calm Calm 2.0 mph SSW3.2 kmh SSW
Wind Gusts 19.7 mph31.7 kmh 0.7 mph1.1 kmh 7.0 mph11.3 kmh
Humidity 99% 79% 93%
Pressure 29.92 in1013.2 mb 29.82 in1009.8 mb -
Precipitation 0.28 in7.1 mm - -
Hour Temp Dew Point Humidity Winds Wind Gusts Pressure Precip Precip Rate Daily Precip Total
12:00 AM 73.8°F23.2°C 72.0°F22.2°C 94% Calm Calm 1.6 mph2.6 kmh 29.91 in1012.9 mb 0.00 in0.0 mm 0.00 in0.0 mm 0.00 in0.0 mm
12:15 AM 73.2°F22.9°C 71.7°F22.1°C 95% 0.7 mph SE1.1 kmh SE 2.2 mph3.5 kmh 29.90 in1012.5 mb 0.00 in0.0 mm 0.00 in0.0 mm 0.00 in0.0 mm
12:30 AM 72.9°F22.7°C 71.7°F22.1°C 96% Calm Calm 3.1 mph5.0 kmh 29.91 in1012.9 mb 0.00 in0.0 mm 0.00 in0.0 mm 0.00 in0.0 mm
12:45 AM 72.7°F22.6°C 71.8°F22.1°C 97% 0.7 mph SSE1.1 kmh SSE 3.1 mph5.0 kmh 29.90 in1012.5 mb 0.00 in0.0 mm 0.00 in0.0 mm 0.00 in0.0 mm
01:00 AM 72.3°F22.4°C 71.8°F22.1°C 98% 0.7 mph S1.1 kmh S 3.8 mph6.1 kmh 29.91 in1012.9 mb 0.00 in0.0 mm 0.00 in0.0 mm 0.00 in0.0 mm
01:15 AM 72.3°F22.4°C 71.8°F22.1°C 98% Calm Calm 3.1 mph5.0 kmh 29.91 in1012.9 mb 0.00 in0.0 mm 0.00 in0.0 mm 0.00 in0.0 mm
01:30 AM 72.0°F22.2°C 71.7°F22.1°C 99% Calm Calm 2.2 mph3.5 kmh 29.90 in1012.5 mb 0.00 in0.0 mm 0.00 in0.0 mm 0.00 in0.0 mm
01:45 AM 71.8°F22.1°C 71.5°F21.9°C 99% Calm Calm 0.7 mph1.1 kmh 29.91 in1012.9 mb 0.00 in0.0 mm 0.00 in0.0 mm 0.00 in0.0 mm
02:00 AM 71.4°F21.9°C 71.2°F21.8°C 99% Calm Calm 0.7 mph1.1 kmh 29.90 in1012.5 mb 0.00 in0.0 mm 0.00 in0.0 mm 0.00 in0.0 mm
02:15 AM 71.1°F21.7°C 70.8°F21.6°C 99% Calm Calm 1.6 mph2.6 kmh 29.90 in1012.5 mb 0.00 in0.0 mm 0.00 in0.0 mm 0.00 in0.0 mm
02:30 AM 70.9°F21.6°C 70.6°F21.4°C 99% Calm Calm 2.2 mph3.5 kmh 29.90 in1012.5 mb 0.00 in0.0 mm 0.00 in0.0 mm 0.00 in0.0 mm
02:45 AM 70.5°F21.4°C 70.3°F21.3°C 99% Calm Calm 3.8 mph6.1 kmh 29.91 in1012.9 mb 0.00 in0.0 mm 0.00 in0.0 mm 0.00 in0.0 mm
03:00 AM 70.5°F21.4°C 70.3°F21.3°C 99% Calm Calm 1.6 mph2.6 kmh 29.91 in1012.9 mb 0.00 in0.0 mm 0.00 in0.0 mm 0.00 in0.0 mm
03:15 AM 70.3°F21.3°C 70.1°F21.2°C 99% 0.7 mph SSE1.1 kmh SSE 3.8 mph6.1 kmh 29.90 in1012.5 mb 0.00 in0.0 mm 0.00 in0.0 mm 0.00 in0.0 mm
03:30 AM 70.5°F21.4°C 70.3°F21.3°C 99% 0.7 mph SSE1.1 kmh SSE 3.1 mph5.0 kmh 29.90 in1012.5 mb 0.00 in0.0 mm 0.00 in0.0 mm 0.00 in0.0 mm
03:45 AM 70.5°F21.4°C 70.3°F21.3°C 99% 0.7 mph S1.1 kmh S 2.2 mph3.5 kmh 29.91 in1012.9 mb 0.00 in0.0 mm 0.00 in0.0 mm 0.00 in0.0 mm
04:00 AM 70.3°F21.3°C 70.1°F21.2°C 99% Calm Calm 1.6 mph2.6 kmh 29.91 in1012.9 mb 0.00 in0.0 mm 0.00 in0.0 mm 0.00 in0.0 mm
04:15 AM 70.3°F21.3°C 70.1°F21.2°C 99% Calm Calm 1.6 mph2.6 kmh 29.91 in1012.9 mb 0.00 in0.0 mm 0.00 in0.0 mm 0.00 in0.0 mm
04:30 AM 70.5°F21.4°C 70.3°F21.3°C 99% 0.7 mph SE1.1 kmh SE 2.2 mph3.5 kmh 29.91 in1012.9 mb 0.00 in0.0 mm 0.00 in0.0 mm 0.00 in0.0 mm
04:45 AM 70.7°F21.5°C 70.4°F21.3°C 99% Calm Calm 1.6 mph2.6 kmh 29.91 in1012.9 mb 0.00 in0.0 mm 0.00 in0.0 mm 0.00 in0.0 mm
05:00 AM 70.9°F21.6°C 70.6°F21.4°C 99% 0.7 mph S1.1 kmh S 1.6 mph2.6 kmh 29.91 in1012.9 mb 0.00 in0.0 mm 0.00 in0.0 mm 0.00 in0.0 mm
05:15 AM 71.1°F21.7°C 70.8°F21.6°C 99% 1.6 mph SE2.6 kmh SE 3.1 mph5.0 kmh 29.91 in1012.9 mb 0.00 in0.0 mm 0.00 in0.0 mm 0.00 in0.0 mm
05:30 AM 71.6°F22.0°C 71.3°F21.8°C 99% Calm Calm 3.8 mph6.1 kmh 29.91 in1012.9 mb 0.00 in0.0 mm 0.00 in0.0 mm 0.00 in0.0 mm
05:45 AM 72.1°F22.3°C 71.9°F22.2°C 99% 1.6 mph S2.6 kmh S 3.8 mph6.1 kmh 29.91 in1012.9 mb 0.00 in0.0 mm 0.00 in0.0 mm 0.00 in0.0 mm
06:00 AM 73.4°F23.0°C 73.2°F22.9°C 99% 2.2 mph S3.5 kmh S 5.4 mph8.7 kmh 29.91 in1012.9 mb 0.00 in0.0 mm 0.00 in0.0 mm 0.00 in0.0 mm
06:15 AM 74.7°F23.7°C 74.4°F23.6°C 99% 2.2 mph SW3.5 kmh SW 4.5 mph7.2 kmh 29.91 in1012.9 mb 0.00 in0.0 mm 0.00 in0.0 mm 0.00 in0.0 mm
06:30 AM 75.7°F24.3°C 75.5°F24.2°C 99% 1.6 mph SW2.6 kmh SW 6.9 mph11.1 kmh 29.91 in1012.9 mb 0.00 in0.0 mm 0.00 in0.0 mm 0.00 in0.0 mm
06:45 AM 76.1°F24.5°C 75.9°F24.4°C 99% 0.7 mph S1.1 kmh S 3.8 mph6.1 kmh 29.92 in1013.2 mb 0.00 in0.0 mm 0.00 in0.0 mm 0.00 in0.0 mm
07:00 AM 76.8°F24.9°C 76.6°F24.8°C 99% 2.2 mph SSW3.5 kmh SSW 6.0 mph9.7 kmh 29.92 in1013.2 mb 0.00 in0.0 mm 0.00 in0.0 mm 0.00 in0.0 mm
07:15 AM 77.5°F25.3°C 77.3°F25.2°C 99% 1.6 mph S2.6 kmh S 6.9 mph11.1 kmh 29.92 in1013.2 mb 0.00 in0.0 mm 0.00 in0.0 mm 0.00 in0.0 mm
07:30 AM 78.3°F25.7°C 77.4°F25.2°C 97% 4.5 mph S7.2 kmh S 9.2 mph14.8 kmh 29.91 in1012.9 mb 0.00 in0.0 mm 0.00 in0.0 mm 0.00 in0.0 mm
07:45 AM 79.0°F26.1°C 77.5°F25.3°C 95% 1.6 mph S2.6 kmh S 9.2 mph14.8 kmh 29.91 in1012.9 mb 0.00 in0.0 mm 0.00 in0.0 mm 0.00 in0.0 mm
08:00 AM 79.5°F26.4°C 77.7°F25.4°C 94% 4.5 mph SSW7.2 kmh SSW 8.3 mph13.4 kmh 29.91 in1012.9 mb 0.00 in0.0 mm 0.00 in0.0 mm 0.00 in0.0 mm
08:15 AM 80.1°F26.7°C 77.9°F25.5°C 93% 3.8 mph SSW6.1 kmh SSW 9.8 mph15.8 kmh 29.92 in1013.2 mb 0.00 in0.0 mm 0.00 in0.0 mm 0.00 in0.0 mm
08:30 AM 80.8°F27.1°C 78.3°F25.7°C 92% 3.8 mph SW6.1 kmh SW 10.7 mph17.2 kmh 29.91 in1012.9 mb 0.00 in0.0 mm 0.00 in0.0 mm 0.00 in0.0 mm
08:45 AM 81.3°F27.4°C 78.2°F25.7°C 90% 1.6 mph SSW2.6 kmh SSW 9.2 mph14.8 kmh 29.92 in1013.2 mb 0.00 in0.0 mm 0.00 in0.0 mm 0.00 in0.0 mm
09:00 AM 81.9°F27.7°C 78.4°F25.8°C 89% 5.4 mph SW8.7 kmh SW 13.6 mph21.9 kmh 29.92 in1013.2 mb 0.00 in0.0 mm 0.00 in0.0 mm 0.00 in0.0 mm
09:15 AM 82.6°F28.1°C 78.7°F25.9°C 88% 6.0 mph SW9.7 kmh SW 12.1 mph19.5 kmh 29.91 in1012.9 mb 0.00 in0.0 mm 0.00 in0.0 mm 0.00 in0.0 mm
09:30 AM 83.7°F28.7°C 79.1°F26.2°C 86% 3.1 mph SW5.0 kmh SW 14.5 mph23.3 kmh 29.91 in1012.9 mb 0.00 in0.0 mm 0.00 in0.0 mm 0.00 in0.0 mm
09:45 AM 85.1°F29.5°C 79.8°F26.6°C 84% 3.8 mph WSW6.1 kmh WSW 17.4 mph28.0 kmh 29.91 in1012.9 mb 0.00 in0.0 mm 0.00 in0.0 mm 0.00 in0.0 mm
10:00 AM 84.4°F29.1°C 78.0°F25.6°C 81% 5.4 mph SW8.7 kmh SW 18.3 mph29.5 kmh 29.91 in1012.9 mb 0.00 in0.0 mm 0.00 in0.0 mm 0.00 in0.0 mm
10:15 AM 84.0°F28.9°C 78.4°F25.8°C 83% 3.8 mph SW6.1 kmh SW 13.0 mph20.9 kmh 29.91 in1012.9 mb 0.00 in0.0 mm 0.00 in0.0 mm 0.00 in0.0 mm
10:30 AM 84.0°F28.9°C 78.4°F25.8°C 83% 6.9 mph WSW11.1 kmh WSW 13.6 mph21.9 kmh 29.90 in1012.5 mb 0.00 in0.0 mm 0.00 in0.0 mm 0.00 in0.0 mm
10:45 AM 84.7°F29.3°C 78.7°F25.9°C 82% 4.5 mph SW7.2 kmh SW 13.0 mph20.9 kmh 29.90 in1012.5 mb 0.00 in0.0 mm 0.00 in0.0 mm 0.00 in0.0 mm
11:00 AM 84.7°F29.3°C 78.7°F25.9°C 82% 6.0 mph SW9.7 kmh SW 12.1 mph19.5 kmh 29.90 in1012.5 mb 0.00 in0.0 mm 0.00 in0.0 mm 0.00 in0.0 mm
11:15 AM 85.1°F29.5°C 79.1°F26.2°C 82% 4.5 mph WSW7.2 kmh WSW 11.4 mph18.3 kmh 29.90 in1012.5 mb 0.00 in0.0 mm 0.00 in0.0 mm 0.00 in0.0 mm
11:30 AM 84.9°F29.4°C 78.9°F26.1°C 82% 4.5 mph SW7.2 kmh SW 10.7 mph17.2 kmh 29.90 in1012.5 mb 0.00 in0.0 mm 0.00 in0.0 mm 0.00 in0.0 mm
11:45 AM 84.0°F28.9°C 78.0°F25.6°C 82% 6.0 mph SW9.7 kmh SW 9.2 mph14.8 kmh 29.90 in1012.5 mb 0.00 in0.0 mm 0.00 in0.0 mm 0.00 in0.0 mm
12:00 PM 83.3°F28.5°C 77.7°F25.4°C 83% 4.5 mph SW7.2 kmh SW 7.6 mph12.2 kmh 29.90 in1012.5 mb 0.00 in0.0 mm 0.00 in0.0 mm 0.00 in0.0 mm
12:15 PM 83.1°F28.4°C 77.9°F25.5°C 84% 1.6 mph SW2.6 kmh SW 8.3 mph13.4 kmh 29.90 in1012.5 mb 0.00 in0.0 mm 0.00 in0.0 mm 0.00 in0.0 mm
12:30 PM 83.3°F28.5°C 77.7°F25.4°C 83% 4.5 mph SW7.2 kmh SW 8.3 mph13.4 kmh 29.89 in1012.2 mb 0.00 in0.0 mm 0.00 in0.0 mm 0.00 in0.0 mm
12:45 PM 84.9°F29.4°C 78.5°F25.8°C 81% 3.8 mph SW6.1 kmh SW 10.7 mph17.2 kmh 29.88 in1011.9 mb 0.00 in0.0 mm 0.00 in0.0 mm 0.00 in0.0 mm
01:00 PM 85.1°F29.5°C 78.7°F25.9°C 81% 1.6 mph SW2.6 kmh SW 9.8 mph15.8 kmh 29.88 in1011.9 mb 0.00 in0.0 mm 0.00 in0.0 mm 0.00 in0.0 mm
01:15 PM 85.3°F29.6°C 78.1°F25.6°C 79% 4.5 mph SW7.2 kmh SW 10.7 mph17.2 kmh 29.88 in1011.9 mb 0.00 in0.0 mm 0.00 in0.0 mm 0.00 in0.0 mm
01:30 PM 86.0°F30.0°C 78.8°F26.0°C 79% 5.4 mph SSW8.7 kmh SSW 10.7 mph17.2 kmh 29.87 in1011.5 mb 0.00 in0.0 mm 0.00 in0.0 mm 0.00 in0.0 mm
01:45 PM 86.0°F30.0°C 79.2°F26.2°C 80% 5.4 mph SW8.7 kmh SW 11.4 mph18.3 kmh 29.86 in1011.2 mb 0.00 in0.0 mm 0.00 in0.0 mm 0.00 in0.0 mm
02:00 PM 86.0°F30.0°C 78.8°F26.0°C 79% 4.5 mph SSW7.2 kmh SSW 10.7 mph17.2 kmh 29.86 in1011.2 mb 0.00 in0.0 mm 0.00 in0.0 mm 0.00 in0.0 mm
02:15 PM 85.8°F29.9°C 79.0°F26.1°C 80% 2.2 mph SW3.5 kmh SW 10.7 mph17.2 kmh 29.85 in1010.8 mb 0.00 in0.0 mm 0.00 in0.0 mm 0.00 in0.0 mm
02:30 PM 87.1°F30.6°C 80.2°F26.8°C 80% 6.0 mph SSW9.7 kmh SSW 9.8 mph15.8 kmh 29.84 in1010.5 mb 0.00 in0.0 mm 0.00 in0.0 mm 0.00 in0.0 mm
02:45 PM 87.4°F30.8°C 80.6°F27.0°C 80% 3.8 mph S6.1 kmh S 9.8 mph15.8 kmh 29.83 in1010.2 mb 0.00 in0.0 mm 0.00 in0.0 mm 0.00 in0.0 mm
03:00 PM 87.3°F30.7°C 80.4°F26.9°C 80% 3.8 mph SE6.1 kmh SE 11.4 mph18.3 kmh 29.83 in1010.2 mb 0.00 in0.0 mm 0.00 in0.0 mm 0.00 in0.0 mm
03:15 PM 86.7°F30.4°C 80.3°F26.8°C 81% 7.6 mph S12.2 kmh S 13.0 mph20.9 kmh 29.84 in1010.5 mb 0.00 in0.0 mm 0.00 in0.0 mm 0.00 in0.0 mm
03:30 PM 85.6°F29.8°C 79.6°F26.4°C 82% 3.1 mph S5.0 kmh S 15.9 mph25.6 kmh 29.84 in1010.5 mb 0.00 in0.0 mm 0.00 in0.0 mm 0.00 in0.0 mm
03:45 PM 84.7°F29.3°C 79.1°F26.2°C 83% 2.2 mph S3.5 kmh S 11.4 mph18.3 kmh 29.83 in1010.2 mb 0.00 in0.0 mm 0.00 in0.0 mm 0.00 in0.0 mm
04:00 PM 84.0°F28.9°C 78.7°F25.9°C 84% 4.5 mph S7.2 kmh S 7.6 mph12.2 kmh 29.83 in1010.2 mb 0.00 in0.0 mm 0.00 in0.0 mm 0.00 in0.0 mm
04:15 PM 82.0°F27.8°C 77.1°F25.1°C 85% 1.6 mph SW2.6 kmh SW 8.3 mph13.4 kmh 29.83 in1010.2 mb 0.00 in0.0 mm 0.00 in0.0 mm 0.00 in0.0 mm
04:30 PM 81.0°F27.2°C 77.1°F25.1°C 88% 0.7 mph S1.1 kmh S 3.8 mph6.1 kmh 29.83 in1010.2 mb 0.00 in0.0 mm 0.00 in0.0 mm 0.00 in0.0 mm
04:45 PM 80.6°F27.0°C 77.8°F25.4°C 91% 1.6 mph S2.6 kmh S 2.2 mph3.5 kmh 29.82 in1009.8 mb 0.01 in0.3 mm 0.04 in1.0 mm 0.01 in0.3 mm
05:00 PM 80.6°F27.0°C 78.5°F25.8°C 93% 1.6 mph S2.6 kmh S 3.1 mph5.0 kmh 29.82 in1009.8 mb 0.01 in0.3 mm 0.00 in0.0 mm 0.01 in0.3 mm
05:15 PM 80.4°F26.9°C 78.6°F25.9°C 94% 0.7 mph S1.1 kmh S 5.4 mph8.7 kmh 29.82 in1009.8 mb 0.01 in0.3 mm 0.00 in0.0 mm 0.01 in0.3 mm
05:30 PM 80.6°F27.0°C 79.1°F26.2°C 95% 0.7 mph S1.1 kmh S 2.2 mph3.5 kmh 29.82 in1009.8 mb 0.01 in0.3 mm 0.00 in0.0 mm 0.01 in0.3 mm
05:45 PM 80.6°F27.0°C 79.4°F26.3°C 96% Calm Calm 3.1 mph5.0 kmh 29.82 in1009.8 mb 0.00 in0.0 mm 0.00 in0.0 mm 0.01 in0.3 mm
06:00 PM 80.8°F27.1°C 79.6°F26.4°C 96% Calm Calm 3.1 mph5.0 kmh 29.82 in1009.8 mb 0.00 in0.0 mm 0.00 in0.0 mm 0.01 in0.3 mm
06:15 PM 80.6°F27.0°C 79.4°F26.3°C 96% Calm Calm 2.2 mph3.5 kmh 29.82 in1009.8 mb 0.00 in0.0 mm 0.00 in0.0 mm 0.01 in0.3 mm
06:30 PM 80.6°F27.0°C 79.4°F26.3°C 96% Calm Calm 1.6 mph2.6 kmh 29.83 in1010.2 mb 0.00 in0.0 mm 0.00 in0.0 mm 0.01 in0.3 mm
06:45 PM 80.2°F26.8°C 79.4°F26.3°C 97% 0.7 mph SSW1.1 kmh SSW 2.2 mph3.5 kmh 29.83 in1010.2 mb 0.00 in0.0 mm 0.00 in0.0 mm 0.01 in0.3 mm
07:00 PM 79.9°F26.6°C 79.3°F26.3°C 98% 0.7 mph W1.1 kmh W 1.6 mph2.6 kmh 29.83 in1010.2 mb 0.00 in0.0 mm 0.00 in0.0 mm 0.01 in0.3 mm
07:15 PM 79.5°F26.4°C 79.0°F26.1°C 98% Calm Calm 2.2 mph3.5 kmh 29.83 in1010.2 mb 0.00 in0.0 mm 0.00 in0.0 mm 0.01 in0.3 mm
07:30 PM 79.2°F26.2°C 78.6°F25.9°C 98% Calm Calm 2.2 mph3.5 kmh 29.83 in1010.2 mb 0.00 in0.0 mm 0.00 in0.0 mm 0.01 in0.3 mm
07:45 PM 78.8°F26.0°C 78.3°F25.7°C 98% Calm Calm 1.6 mph2.6 kmh 29.82 in1009.8 mb 0.00 in0.0 mm 0.00 in0.0 mm 0.01 in0.3 mm
08:00 PM 78.8°F26.0°C 78.6°F25.9°C 99% Calm Calm 0.7 mph1.1 kmh 29.83 in1010.2 mb 0.00 in0.0 mm 0.00 in0.0 mm 0.01 in0.3 mm
08:15 PM 78.4°F25.8°C 78.2°F25.7°C 99% Calm Calm 1.6 mph2.6 kmh 29.84 in1010.5 mb 0.00 in0.0 mm 0.00 in0.0 mm 0.01 in0.3 mm
08:30 PM 78.1°F25.6°C 77.8°F25.4°C 99% 2.2 mph WSW3.5 kmh WSW 6.0 mph9.7 kmh 29.85 in1010.8 mb 0.00 in0.0 mm 0.00 in0.0 mm 0.01 in0.3 mm
08:45 PM 77.5°F25.3°C 77.3°F25.2°C 99% 6.0 mph WSW9.7 kmh WSW 19.7 mph31.7 kmh 29.86 in1011.2 mb 0.02 in0.5 mm 0.08 in2.0 mm 0.04 in1.0 mm
09:00 PM 75.0°F23.9°C 74.8°F23.8°C 99% 5.4 mph SSW8.7 kmh SSW 13.6 mph21.9 kmh 29.87 in1011.5 mb 0.12 in3.0 mm 0.13 in3.3 mm 0.13 in3.3 mm
09:15 PM 73.6°F23.1°C 73.3°F22.9°C 99% 3.1 mph SSW5.0 kmh SSW 9.2 mph14.8 kmh 29.86 in1011.2 mb 0.15 in3.8 mm 0.12 in3.0 mm 0.17 in4.3 mm
09:30 PM 73.2°F22.9°C 73.0°F22.8°C 99% 1.6 mph SSW2.6 kmh SSW 6.0 mph9.7 kmh 29.86 in1011.2 mb 0.18 in4.6 mm 0.12 in3.0 mm 0.19 in4.8 mm
09:45 PM 73.2°F22.9°C 73.0°F22.8°C 99% 2.2 mph SW3.5 kmh SW 6.0 mph9.7 kmh 29.86 in1011.2 mb 0.18 in4.6 mm 0.00 in0.0 mm 0.21 in5.3 mm
10:00 PM 73.2°F22.9°C 73.0°F22.8°C 99% 3.1 mph SSW5.0 kmh SSW 6.0 mph9.7 kmh 29.86 in1011.2 mb 0.09 in2.3 mm 0.00 in0.0 mm 0.22 in5.6 mm
10:15 PM 72.9°F22.7°C 72.6°F22.6°C 99% 1.6 mph SW2.6 kmh SW 6.0 mph9.7 kmh 29.86 in1011.2 mb 0.08 in2.0 mm 0.00 in0.0 mm 0.26 in6.6 mm
10:30 PM 72.5°F22.5°C 72.2°F22.3°C 99% 0.7 mph SSW1.1 kmh SSW 4.5 mph7.2 kmh 29.85 in1010.8 mb 0.09 in2.3 mm 0.04 in1.0 mm 0.28 in7.1 mm
10:45 PM 72.5°F22.5°C 72.2°F22.3°C 99% Calm Calm 4.5 mph7.2 kmh 29.85 in1010.8 mb 0.07 in1.8 mm 0.00 in0.0 mm 0.28 in7.1 mm
11:00 PM 72.5°F22.5°C 72.2°F22.3°C 99% Calm Calm 1.6 mph2.6 kmh 29.84 in1010.5 mb 0.06 in1.5 mm 0.00 in0.0 mm 0.20 in5.1 mm
11:15 PM 72.5°F22.5°C 72.2°F22.3°C 99% 1.6 mph S2.6 kmh S 3.1 mph5.0 kmh 29.84 in1010.5 mb 0.01 in0.3 mm 0.00 in0.0 mm 0.20 in5.1 mm
11:30 PM 72.7°F22.6°C 72.4°F22.4°C 99% 2.2 mph SSW3.5 kmh SSW 3.8 mph6.1 kmh 29.84 in1010.5 mb 0.00 in0.0 mm 0.00 in0.0 mm 0.20 in5.1 mm
11:45 PM 72.7°F22.6°C 72.4°F22.4°C 99% 1.6 mph S2.6 kmh S 4.5 mph7.2 kmh 29.83 in1010.2 mb 0.00 in0.0 mm 0.00 in0.0 mm 0.20 in5.1 mm